sensor_id;sensor_type;location;lat;lon;timestamp;P1;durP1;ratioP1;P2;durP2;ratioP2
67164;SDS011;54093;50.014;19.984;2023-02-03T00:00:12;3.08;;;2.72;;
67164;SDS011;54093;50.014;19.984;2023-02-03T00:09:54;2.38;;;2.17;;
67164;SDS011;54093;50.014;19.984;2023-02-03T00:19:16;5.95;;;3.72;;
67164;SDS011;54093;50.014;19.984;2023-02-03T00:28:37;3.42;;;2.88;;
67164;SDS011;54093;50.014;19.984;2023-02-03T00:37:58;4.15;;;3.30;;
67164;SDS011;54093;50.014;19.984;2023-02-03T00:47:19;4.32;;;4.03;;
67164;SDS011;54093;50.014;19.984;2023-02-03T00:56:40;6.88;;;4.15;;
67164;SDS011;54093;50.014;19.984;2023-02-03T01:06:34;3.13;;;2.70;;
67164;SDS011;54093;50.014;19.984;2023-02-03T01:15:48;4.07;;;3.78;;
67164;SDS011;54093;50.014;19.984;2023-02-03T01:25:09;4.43;;;3.92;;
67164;SDS011;54093;50.014;19.984;2023-02-03T01:34:30;7.07;;;4.80;;
67164;SDS011;54093;50.014;19.984;2023-02-03T01:43:52;2.35;;;2.22;;
67164;SDS011;54093;50.014;19.984;2023-02-03T01:53:14;4.97;;;2.90;;
67164;SDS011;54093;50.014;19.984;2023-02-03T02:02:35;3.78;;;3.47;;
67164;SDS011;54093;50.014;19.984;2023-02-03T02:11:56;5.90;;;4.00;;
67164;SDS011;54093;50.014;19.984;2023-02-03T02:50:17;3.80;;;3.60;;
67164;SDS011;54093;50.014;19.984;2023-02-03T02:59:46;4.95;;;4.55;;
67164;SDS011;54093;50.014;19.984;2023-02-03T03:09:11;3.60;;;3.30;;
67164;SDS011;54093;50.014;19.984;2023-02-03T03:19:42;7.63;;;5.43;;
67164;SDS011;54093;50.014;19.984;2023-02-03T03:29:02;3.10;;;2.90;;
67164;SDS011;54093;50.014;19.984;2023-02-03T03:38:48;5.15;;;3.67;;
67164;SDS011;54093;50.014;19.984;2023-02-03T03:48:21;4.88;;;3.28;;
67164;SDS011;54093;50.014;19.984;2023-02-03T03:57:58;2.85;;;2.58;;
67164;SDS011;54093;50.014;19.984;2023-02-03T04:07:24;3.10;;;2.90;;
67164;SDS011;54093;50.014;19.984;2023-02-03T04:16:58;6.60;;;4.40;;
67164;SDS011;54093;50.014;19.984;2023-02-03T04:26:19;2.22;;;2.13;;
67164;SDS011;54093;50.014;19.984;2023-02-03T04:35:40;2.17;;;1.80;;
67164;SDS011;54093;50.014;19.984;2023-02-03T04:45:01;3.30;;;3.00;;
67164;SDS011;54093;50.014;19.984;2023-02-03T04:54:22;6.78;;;2.60;;
67164;SDS011;54093;50.014;19.984;2023-02-03T05:03:43;3.28;;;2.58;;
67164;SDS011;54093;50.014;19.984;2023-02-03T05:13:04;5.03;;;3.13;;
67164;SDS011;54093;50.014;19.984;2023-02-03T05:22:25;6.45;;;4.13;;
67164;SDS011;54093;50.014;19.984;2023-02-03T05:31:46;5.55;;;5.03;;
67164;SDS011;54093;50.014;19.984;2023-02-03T05:41:08;4.70;;;4.18;;
67164;SDS011;54093;50.014;19.984;2023-02-03T05:50:49;3.90;;;3.60;;
67164;SDS011;54093;50.014;19.984;2023-02-03T06:00:11;6.20;;;3.40;;
67164;SDS011;54093;50.014;19.984;2023-02-03T06:09:32;3.47;;;2.85;;
67164;SDS011;54093;50.014;19.984;2023-02-03T06:18:54;3.83;;;2.90;;
67164;SDS011;54093;50.014;19.984;2023-02-03T06:28:20;8.70;;;4.10;;
67164;SDS011;54093;50.014;19.984;2023-02-03T06:37:41;5.05;;;4.55;;
67164;SDS011;54093;50.014;19.984;2023-02-03T06:47:02;3.42;;;3.13;;
67164;SDS011;54093;50.014;19.984;2023-02-03T06:56:23;4.85;;;3.10;;
67164;SDS011;54093;50.014;19.984;2023-02-03T07:05:44;2.75;;;2.58;;
67164;SDS011;54093;50.014;19.984;2023-02-03T07:15:05;3.67;;;3.33;;
67164;SDS011;54093;50.014;19.984;2023-02-03T07:24:26;4.55;;;1.67;;
67164;SDS011;54093;50.014;19.984;2023-02-03T07:33:48;2.72;;;2.53;;
67164;SDS011;54093;50.014;19.984;2023-02-03T07:43:10;5.90;;;2.50;;
67164;SDS011;54093;50.014;19.984;2023-02-03T07:52:32;2.47;;;1.88;;
67164;SDS011;54093;50.014;19.984;2023-02-03T08:01:53;2.50;;;2.00;;
67164;SDS011;54093;50.014;19.984;2023-02-03T08:11:15;3.40;;;1.83;;
67164;SDS011;54093;50.014;19.984;2023-02-03T08:20:36;2.17;;;1.42;;
67164;SDS011;54093;50.014;19.984;2023-02-03T08:29:57;2.70;;;2.20;;
67164;SDS011;54093;50.014;19.984;2023-02-03T08:39:19;2.08;;;1.98;;
67164;SDS011;54093;50.014;19.984;2023-02-03T08:48:40;1.80;;;1.70;;
67164;SDS011;54093;50.014;19.984;2023-02-03T08:58:00;1.33;;;1.33;;
67164;SDS011;54093;50.014;19.984;2023-02-03T09:07:21;1.60;;;1.50;;
67164;SDS011;54093;50.014;19.984;2023-02-03T09:16:43;8.77;;;1.83;;
67164;SDS011;54093;50.014;19.984;2023-02-03T09:26:04;2.58;;;2.38;;
67164;SDS011;54093;50.014;19.984;2023-02-03T09:35:26;1.30;;;1.23;;
67164;SDS011;54093;50.014;19.984;2023-02-03T09:54:40;2.00;;;1.90;;
67164;SDS011;54093;50.014;19.984;2023-02-03T10:23:29;2.38;;;1.58;;
67164;SDS011;54093;50.014;19.984;2023-02-03T10:33:28;1.80;;;1.70;;
67164;SDS011;54093;50.014;19.984;2023-02-03T10:42:46;1.55;;;1.13;;
67164;SDS011;54093;50.014;19.984;2023-02-03T10:52:31;2.67;;;1.00;;
67164;SDS011;54093;50.014;19.984;2023-02-03T11:01:53;1.20;;;1.20;;
67164;SDS011;54093;50.014;19.984;2023-02-03T11:20:46;4.43;;;3.33;;
67164;SDS011;54093;50.014;19.984;2023-02-03T11:39:36;2.00;;;1.90;;
67164;SDS011;54093;50.014;19.984;2023-02-03T11:49:00;4.45;;;3.22;;
67164;SDS011;54093;50.014;19.984;2023-02-03T12:46:17;2.55;;;1.90;;
67164;SDS011;54093;50.014;19.984;2023-02-03T12:55:43;3.55;;;3.03;;
67164;SDS011;54093;50.014;19.984;2023-02-03T13:05:31;2.42;;;2.15;;
67164;SDS011;54093;50.014;19.984;2023-02-03T13:24:40;3.25;;;2.33;;
67164;SDS011;54093;50.014;19.984;2023-02-03T13:34:17;1.77;;;1.67;;
67164;SDS011;54093;50.014;19.984;2023-02-03T13:43:54;2.40;;;2.25;;
67164;SDS011;54093;50.014;19.984;2023-02-03T14:02:44;1.88;;;1.77;;
67164;SDS011;54093;50.014;19.984;2023-02-03T14:12:19;1.73;;;1.42;;
67164;SDS011;54093;50.014;19.984;2023-02-03T14:21:50;1.40;;;1.40;;
67164;SDS011;54093;50.014;19.984;2023-02-03T14:31:18;1.00;;;1.00;;
67164;SDS011;54093;50.014;19.984;2023-02-03T14:40:46;1.17;;;1.10;;
67164;SDS011;54093;50.014;19.984;2023-02-03T15:09:43;1.65;;;1.60;;
67164;SDS011;54093;50.014;19.984;2023-02-03T15:19:15;2.20;;;2.10;;
67164;SDS011;54093;50.014;19.984;2023-02-03T15:28:38;1.02;;;1.02;;
67164;SDS011;54093;50.014;19.984;2023-02-03T15:38:00;1.55;;;1.38;;
67164;SDS011;54093;50.014;19.984;2023-02-03T15:47:33;3.05;;;1.75;;
67164;SDS011;54093;50.014;19.984;2023-02-03T15:56:59;2.10;;;2.00;;
67164;SDS011;54093;50.014;19.984;2023-02-03T16:06:26;1.58;;;1.48;;
67164;SDS011;54093;50.014;19.984;2023-02-03T16:15:57;2.30;;;2.10;;
67164;SDS011;54093;50.014;19.984;2023-02-03T16:25:35;2.63;;;2.53;;
67164;SDS011;54093;50.014;19.984;2023-02-03T16:34:56;6.10;;;2.40;;
67164;SDS011;54093;50.014;19.984;2023-02-03T16:44:36;2.25;;;1.95;;
67164;SDS011;54093;50.014;19.984;2023-02-03T16:54:15;4.20;;;2.15;;
67164;SDS011;54093;50.014;19.984;2023-02-03T17:03:37;2.38;;;1.80;;
67164;SDS011;54093;50.014;19.984;2023-02-03T17:12:59;3.30;;;2.70;;
67164;SDS011;54093;50.014;19.984;2023-02-03T17:22:20;4.25;;;3.13;;
67164;SDS011;54093;50.014;19.984;2023-02-03T17:31:41;1.38;;;1.38;;
67164;SDS011;54093;50.014;19.984;2023-02-03T17:41:13;4.68;;;2.35;;
67164;SDS011;54093;50.014;19.984;2023-02-03T17:50:36;3.45;;;2.28;;
67164;SDS011;54093;50.014;19.984;2023-02-03T17:59:58;3.38;;;3.10;;
67164;SDS011;54093;50.014;19.984;2023-02-03T18:09:20;2.75;;;2.55;;
67164;SDS011;54093;50.014;19.984;2023-02-03T18:18:41;3.28;;;2.97;;
67164;SDS011;54093;50.014;19.984;2023-02-03T18:28:04;6.05;;;2.83;;
67164;SDS011;54093;50.014;19.984;2023-02-03T18:37:26;6.03;;;2.95;;
67164;SDS011;54093;50.014;19.984;2023-02-03T18:46:47;7.43;;;4.32;;
67164;SDS011;54093;50.014;19.984;2023-02-03T18:56:18;5.07;;;3.90;;
67164;SDS011;54093;50.014;19.984;2023-02-03T19:05:44;7.97;;;4.18;;
67164;SDS011;54093;50.014;19.984;2023-02-03T19:15:07;4.20;;;2.88;;
67164;SDS011;54093;50.014;19.984;2023-02-03T19:24:30;4.07;;;3.78;;
67164;SDS011;54093;50.014;19.984;2023-02-03T19:33:51;6.55;;;4.00;;
67164;SDS011;54093;50.014;19.984;2023-02-03T19:43:12;5.03;;;4.07;;
67164;SDS011;54093;50.014;19.984;2023-02-03T19:52:35;5.90;;;3.70;;
67164;SDS011;54093;50.014;19.984;2023-02-03T20:01:56;7.68;;;4.80;;
67164;SDS011;54093;50.014;19.984;2023-02-03T20:11:18;4.82;;;3.00;;
67164;SDS011;54093;50.014;19.984;2023-02-03T20:20:40;7.53;;;4.30;;
67164;SDS011;54093;50.014;19.984;2023-02-03T20:30:01;3.67;;;3.38;;
67164;SDS011;54093;50.014;19.984;2023-02-03T20:39:23;3.65;;;3.22;;
67164;SDS011;54093;50.014;19.984;2023-02-03T20:48:44;2.80;;;2.55;;
67164;SDS011;54093;50.014;19.984;2023-02-03T20:58:18;8.98;;;4.40;;
67164;SDS011;54093;50.014;19.984;2023-02-03T21:07:43;6.75;;;3.08;;
67164;SDS011;54093;50.014;19.984;2023-02-03T21:17:13;4.07;;;3.42;;
67164;SDS011;54093;50.014;19.984;2023-02-03T21:26:38;9.82;;;3.80;;
67164;SDS011;54093;50.014;19.984;2023-02-03T21:35:59;3.25;;;3.00;;
67164;SDS011;54093;50.014;19.984;2023-02-03T21:45:21;2.92;;;2.70;;
67164;SDS011;54093;50.014;19.984;2023-02-03T21:54:45;3.93;;;2.47;;
67164;SDS011;54093;50.014;19.984;2023-02-03T22:04:07;3.83;;;3.30;;
67164;SDS011;54093;50.014;19.984;2023-02-03T22:13:28;7.00;;;3.45;;
67164;SDS011;54093;50.014;19.984;2023-02-03T22:22:49;8.48;;;4.50;;
67164;SDS011;54093;50.014;19.984;2023-02-03T22:32:11;7.43;;;4.72;;
67164;SDS011;54093;50.014;19.984;2023-02-03T22:41:31;4.65;;;3.72;;
67164;SDS011;54093;50.014;19.984;2023-02-03T22:50:54;8.18;;;5.60;;
67164;SDS011;54093;50.014;19.984;2023-02-03T23:00:19;5.70;;;3.15;;
67164;SDS011;54093;50.014;19.984;2023-02-03T23:09:41;7.07;;;3.08;;
67164;SDS011;54093;50.014;19.984;2023-02-03T23:19:02;4.50;;;3.38;;
67164;SDS011;54093;50.014;19.984;2023-02-03T23:28:23;8.32;;;3.90;;
67164;SDS011;54093;50.014;19.984;2023-02-03T23:37:44;5.13;;;3.72;;
67164;SDS011;54093;50.014;19.984;2023-02-03T23:47:06;6.68;;;3.30;;
67164;SDS011;54093;50.014;19.984;2023-02-03T23:56:27;5.60;;;4.90;;
